Time;durP1;ratioP1;P1;durP2;ratioP2;P2;SDS_P1;SDS_P2;PMS_P1;PMS_P2;Temp;Humidity;BMP_temperature;BMP_pressure;BME280_temperature;BME280_humidity;BME280_pressure;Samples;Min_cycle;Max_cycle;Signal;HPM_P1;HPM_P2
2021/07/19 00:01:36;;;;;;;1.60;1.17;;;;;;;;;;6297246;22;20003;-38
2021/07/19 00:04:01;;;;;;;3.40;1.50;;;;;;;;;;6297641;22;19999;-38
2021/07/19 00:06:27;;;;;;;3.17;1.73;;;;;;;;;;6296586;22;20003;-39
2021/07/19 00:08:52;;;;;;;2.33;1.83;;;;;;;;;;6297603;22;20550;-39
2021/07/19 00:11:17;;;;;;;3.08;2.22;;;;;;;;;;6297044;22;19999;-40
2021/07/19 00:13:43;;;;;;;2.05;1.48;;;;;;;;;;6296777;22;20458;-39
2021/07/19 00:16:08;;;;;;;2.72;2.45;;;;;;;;;;6297050;22;20019;-38
2021/07/19 00:18:33;;;;;;;3.33;2.33;;;;;;;;;;6296912;22;19999;-38
2021/07/19 00:20:59;;;;;;;2.65;2.03;;;;;;;;;;6297348;22;19999;-39
2021/07/19 00:23:25;;;;;;;3.30;1.85;;;;;;;;;;6297104;22;20386;-40
2021/07/19 00:25:51;;;;;;;9.95;2.25;;;;;;;;;;6298640;22;19999;-40
2021/07/19 00:28:16;;;;;;;3.28;1.83;;;;;;;;;;6301320;22;20040;-39
2021/07/19 00:30:42;;;;;;;3.58;2.33;;;;;;;;;;6301098;22;20474;-40
2021/07/19 00:33:08;;;;;;;1.35;1.23;;;;;;;;;;6300936;22;20005;-40
2021/07/19 00:35:33;;;;;;;3.50;1.98;;;;;;;;;;6301140;22;20023;-39
2021/07/19 00:37:59;;;;;;;2.85;2.40;;;;;;;;;;6301016;22;20026;-39
2021/07/19 00:40:25;;;;;;;5.15;2.10;;;;;;;;;;6301023;22;19995;-40
2021/07/19 00:42:51;;;;;;;4.25;2.83;;;;;;;;;;6301019;22;19993;-38
2021/07/19 00:45:18;;;;;;;4.15;2.70;;;;;;;;;;6301576;22;20030;-39
2021/07/19 00:47:45;;;;;;;4.78;2.67;;;;;;;;;;6301304;22;20101;-40
2021/07/19 00:50:11;;;;;;;11.35;3.40;;;;;;;;;;6300857;22;20459;-40
2021/07/19 00:52:37;;;;;;;3.10;2.58;;;;;;;;;;6300699;22;19991;-39
2021/07/19 00:55:03;;;;;;;4.07;2.30;;;;;;;;;;6301031;22;20026;-39
2021/07/19 00:57:30;;;;;;;3.25;2.72;;;;;;;;;;6304489;22;19995;-39
2021/07/19 00:59:57;;;;;;;6.45;1.92;;;;;;;;;;6304714;22;20487;-38
2021/07/19 01:02:22;;;;;;;5.13;2.75;;;;;;;;;;6304222;22;19998;-38
2021/07/19 01:04:48;;;;;;;4.22;2.40;;;;;;;;;;6304712;22;20003;-39
2021/07/19 01:07:15;;;;;;;4.30;1.83;;;;;;;;;;6304227;22;20448;-41
2021/07/19 01:09:40;;;;;;;12.52;4.28;;;;;;;;;;6304607;22;20003;-39
2021/07/19 01:12:06;;;;;;;3.05;1.92;;;;;;;;;;6304387;22;20014;-42
2021/07/19 01:14:31;;;;;;;8.40;3.88;;;;;;;;;;6304160;22;20007;-39
2021/07/19 01:16:56;;;;;;;3.75;2.88;;;;;;;;;;6304090;22;20010;-37
2021/07/19 01:19:22;;;;;;;2.92;2.55;;;;;;;;;;6304063;22;20042;-37
2021/07/19 01:21:51;;;;;;;2.72;2.03;;;;;;;;;;6304353;22;20023;-37
2021/07/19 01:24:27;;;;;;;6.70;2.55;;;;;;;;;;6304236;22;19991;-38
2021/07/19 01:27:19;;;;;;;3.67;2.15;;;;;;;;;;6304599;22;20003;-37
2021/07/19 01:29:46;;;;;;;6.55;2.78;;;;;;;;;;6304144;22;20007;-37
2021/07/19 01:32:11;;;;;;;3.20;2.65;;;;;;;;;;6304513;22;20007;-38
2021/07/19 01:34:38;;;;;;;7.13;3.67;;;;;;;;;;6304063;22;20000;-38
2021/07/19 01:37:05;;;;;;;11.50;2.30;;;;;;;;;;6304730;22;19995;-36
2021/07/19 01:39:35;;;;;;;6.45;3.17;;;;;;;;;;6304236;22;19996;-37
2021/07/19 01:42:01;;;;;;;22.88;4.80;;;;;;;;;;6304619;22;20293;-38
2021/07/19 01:44:27;;;;;;;4.15;3.05;;;;;;;;;;6304485;22;20421;-37
2021/07/19 01:46:57;;;;;;;19.70;4.68;;;;;;;;;;6304395;22;20026;-37
2021/07/19 01:49:23;;;;;;;3.30;2.65;;;;;;;;;;6304090;22;19999;-37
2021/07/19 01:51:48;;;;;;;3.70;1.92;;;;;;;;;;6304540;22;20023;-37
2021/07/19 01:54:20;;;;;;;5.88;3.00;;;;;;;;;;6304640;22;20352;-37
2021/07/19 01:56:46;;;;;;;3.28;2.25;;;;;;;;;;6303722;22;20478;-37
2021/07/19 01:59:12;;;;;;;3.42;2.20;;;;;;;;;;6304314;22;20085;-38
2021/07/19 02:01:39;;;;;;;2.47;1.75;;;;;;;;;;6304225;22;20015;-37
2021/07/19 02:04:04;;;;;;;3.72;2.90;;;;;;;;;;6303617;22;20114;-37
2021/07/19 02:06:30;;;;;;;6.20;2.78;;;;;;;;;;6304221;22;20030;-38
2021/07/19 02:09:00;;;;;;;6.10;2.80;;;;;;;;;;6302320;22;20041;-36
2021/07/19 02:11:27;;;;;;;3.08;2.25;;;;;;;;;;6302368;22;20049;-36
2021/07/19 02:13:53;;;;;;;3.65;2.22;;;;;;;;;;6302192;22;20003;-37
2021/07/19 02:16:19;;;;;;;11.77;3.35;;;;;;;;;;6302179;22;20066;-36
2021/07/19 02:18:45;;;;;;;2.67;2.38;;;;;;;;;;6302370;22;20463;-36
2021/07/19 02:21:10;;;;;;;2.80;2.08;;;;;;;;;;6302825;22;20011;-37
2021/07/19 02:23:36;;;;;;;3.53;2.28;;;;;;;;;;6302427;22;19999;-36
2021/07/19 02:26:02;;;;;;;3.67;2.05;;;;;;;;;;6302259;22;20031;-37
2021/07/19 02:28:28;;;;;;;3.65;2.97;;;;;;;;;;6302130;22;20009;-36
2021/07/19 02:30:53;;;;;;;3.53;2.67;;;;;;;;;;6301973;22;20097;-36
2021/07/19 02:33:22;;;;;;;3.13;2.25;;;;;;;;;;6301819;22;19999;-36
2021/07/19 02:35:51;;;;;;;3.20;2.90;;;;;;;;;;6302241;22;20444;-37
2021/07/19 02:38:16;;;;;;;3.63;2.25;;;;;;;;;;6302308;22;19995;-36
2021/07/19 02:40:44;;;;;;;4.65;3.25;;;;;;;;;;6301448;22;20002;-36
2021/07/19 02:43:10;;;;;;;10.05;3.20;;;;;;;;;;6302318;22;19999;-36
2021/07/19 02:45:39;;;;;;;3.53;2.90;;;;;;;;;;6301768;22;19996;-36
2021/07/19 02:48:06;;;;;;;3.47;2.45;;;;;;;;;;6302538;22;20037;-37
2021/07/19 02:50:32;;;;;;;3.17;2.88;;;;;;;;;;6302559;22;20010;-37
2021/07/19 02:52:59;;;;;;;3.40;3.05;;;;;;;;;;6302351;22;20331;-36
2021/07/19 02:55:24;;;;;;;4.95;3.55;;;;;;;;;;6302015;22;20239;-37
2021/07/19 02:57:50;;;;;;;9.48;3.72;;;;;;;;;;6302075;22;20420;-37
2021/07/19 03:00:16;;;;;;;4.50;2.92;;;;;;;;;;6301915;22;20023;-38
2021/07/19 03:02:51;;;;;;;3.53;2.97;;;;;;;;;;6302201;22;19995;-37
2021/07/19 03:05:17;;;;;;;6.53;3.05;;;;;;;;;;6302476;22;20026;-37
2021/07/19 03:07:44;;;;;;;7.03;2.35;;;;;;;;;;6300303;22;20026;-37
2021/07/19 03:10:10;;;;;;;4.63;3.15;;;;;;;;;;6302142;22;20018;-38
2021/07/19 03:12:36;;;;;;;11.23;3.83;;;;;;;;;;6301917;22;20554;-38
2021/07/19 03:15:02;;;;;;;5.38;3.20;;;;;;;;;;6301267;22;20015;-37
2021/07/19 03:17:28;;;;;;;5.28;3.85;;;;;;;;;;6301806;22;19995;-37
2021/07/19 03:19:55;;;;;;;3.50;2.88;;;;;;;;;;6301048;22;20042;-38
2021/07/19 03:22:22;;;;;;;3.90;3.05;;;;;;;;;;6301622;22;20052;-37
2021/07/19 03:24:48;;;;;;;5.43;2.80;;;;;;;;;;6301720;22;20093;-38
2021/07/19 03:27:19;;;;;;;5.88;2.92;;;;;;;;;;6302090;22;19999;-38
2021/07/19 03:29:45;;;;;;;3.05;2.10;;;;;;;;;;6301646;22;20060;-40
2021/07/19 03:32:10;;;;;;;3.72;3.25;;;;;;;;;;6301597;22;20110;-38
2021/07/19 03:34:37;;;;;;;6.55;4.30;;;;;;;;;;6301261;22;20003;-38
2021/07/19 03:37:02;;;;;;;6.75;3.45;;;;;;;;;;6301723;22;20129;-38
2021/07/19 03:39:28;;;;;;;3.47;3.03;;;;;;;;;;6301396;22;20027;-39
2021/07/19 03:41:53;;;;;;;4.60;2.63;;;;;;;;;;6301590;22;20018;-38
2021/07/19 03:44:19;;;;;;;9.18;4.22;;;;;;;;;;6301849;22;20031;-40
2021/07/19 03:46:45;;;;;;;3.17;2.83;;;;;;;;;;6301048;22;19999;-39
2021/07/19 03:49:14;;;;;;;4.10;2.85;;;;;;;;;;6301772;22;20078;-38
2021/07/19 03:51:41;;;;;;;6.82;3.10;;;;;;;;;;6301335;22;20034;-38
2021/07/19 03:54:06;;;;;;;3.30;2.63;;;;;;;;;;6301292;22;19995;-38
2021/07/19 03:56:32;;;;;;;4.43;3.03;;;;;;;;;;6301604;22;19995;-38
2021/07/19 03:58:58;;;;;;;5.93;4.18;;;;;;;;;;6301959;22;20409;-38
2021/07/19 04:01:24;;;;;;;13.95;3.97;;;;;;;;;;6301165;22;20451;-38
2021/07/19 04:03:52;;;;;;;3.03;2.47;;;;;;;;;;6301519;22;20031;-38
2021/07/19 04:06:18;;;;;;;2.65;2.15;;;;;;;;;;6301636;22;20015;-38
2021/07/19 04:08:44;;;;;;;3.15;2.65;;;;;;;;;;6301406;22;20080;-38
2021/07/19 04:11:11;;;;;;;10.65;3.72;;;;;;;;;;6301745;22;20026;-39
2021/07/19 04:13:38;;;;;;;4.90;3.55;;;;;;;;;;6301334;22;19995;-38
2021/07/19 04:16:03;;;;;;;4.63;2.70;;;;;;;;;;6301285;22;20369;-38
2021/07/19 04:18:30;;;;;;;3.35;2.67;;;;;;;;;;6301547;22;20444;-38
2021/07/19 04:20:56;;;;;;;3.83;3.33;;;;;;;;;;6301585;22;19999;-38
2021/07/19 04:23:22;;;;;;;5.95;3.97;;;;;;;;;;6301365;22;20014;-38
2021/07/19 04:25:48;;;;;;;5.18;3.75;;;;;;;;;;6300952;22;20041;-37
2021/07/19 04:28:14;;;;;;;6.10;3.28;;;;;;;;;;6301248;22;20697;-38
2021/07/19 04:30:40;;;;;;;2.78;2.53;;;;;;;;;;6300934;22;20038;-37
2021/07/19 04:33:05;;;;;;;6.35;3.95;;;;;;;;;;6301527;22;19995;-37
2021/07/19 04:35:31;;;;;;;10.18;3.17;;;;;;;;;;6301511;22;20062;-37
2021/07/19 04:37:56;;;;;;;10.20;4.15;;;;;;;;;;6301726;22;20010;-37
2021/07/19 04:40:22;;;;;;;5.63;5.03;;;;;;;;;;6301018;22;19995;-37
2021/07/19 04:42:48;;;;;;;9.10;4.40;;;;;;;;;;6301147;22;20451;-37
2021/07/19 04:45:16;;;;;;;5.65;4.22;;;;;;;;;;6301371;22;20007;-38
2021/07/19 04:47:42;;;;;;;7.25;4.45;;;;;;;;;;6301208;22;20007;-37
2021/07/19 04:50:07;;;;;;;5.45;4.65;;;;;;;;;;6301240;22;20317;-37
2021/07/19 04:52:32;;;;;;;6.07;4.28;;;;;;;;;;6301093;22;20006;-38
2021/07/19 04:54:58;;;;;;;7.32;5.30;;;;;;;;;;6301038;22;20006;-37
2021/07/19 04:57:25;;;;;;;3.83;3.15;;;;;;;;;;6300988;22;20010;-37
2021/07/19 04:59:51;;;;;;;5.50;4.30;;;;;;;;;;6301077;22;20075;-37
2021/07/19 05:02:18;;;;;;;5.18;4.05;;;;;;;;;;6301116;22;19995;-38
2021/07/19 05:04:44;;;;;;;5.13;3.78;;;;;;;;;;6301162;22;20068;-37
2021/07/19 05:07:11;;;;;;;5.63;3.55;;;;;;;;;;6301160;22;20029;-37
2021/07/19 05:09:40;;;;;;;5.82;4.22;;;;;;;;;;6301172;22;20463;-37
2021/07/19 05:12:07;;;;;;;4.53;3.20;;;;;;;;;;6301136;22;20057;-37
2021/07/19 05:14:32;;;;;;;2.97;2.60;;;;;;;;;;6300538;22;20054;-37
2021/07/19 05:16:58;;;;;;;9.00;4.18;;;;;;;;;;6300655;22;20003;-37
2021/07/19 05:19:24;;;;;;;7.55;5.88;;;;;;;;;;6300632;22;19996;-38
2021/07/19 05:21:50;;;;;;;5.97;4.40;;;;;;;;;;6300961;22;19996;-37
2021/07/19 05:24:15;;;;;;;9.48;5.75;;;;;;;;;;6300918;22;20424;-37
2021/07/19 05:26:40;;;;;;;4.35;3.55;;;;;;;;;;6300264;22;20010;-39
2021/07/19 05:29:06;;;;;;;7.53;5.50;;;;;;;;;;6301081;22;20002;-37
2021/07/19 05:31:31;;;;;;;4.88;4.13;;;;;;;;;;6300627;22;20504;-37
2021/07/19 05:33:57;;;;;;;7.63;4.38;;;;;;;;;;6300594;22;20022;-37
2021/07/19 05:36:22;;;;;;;5.07;3.80;;;;;;;;;;6300991;22;20027;-38
2021/07/19 05:38:47;;;;;;;9.77;6.63;;;;;;;;;;6300602;22;20482;-37
2021/07/19 05:41:13;;;;;;;11.20;5.38;;;;;;;;;;6300952;22;20002;-37
2021/07/19 05:43:39;;;;;;;7.72;6.97;;;;;;;;;;6301426;22;20006;-38
2021/07/19 05:46:04;;;;;;;11.07;6.95;;;;;;;;;;6303172;22;20007;-37
2021/07/19 05:48:29;;;;;;;7.45;6.72;;;;;;;;;;6302723;22;20324;-38
2021/07/19 05:50:56;;;;;;;8.95;7.38;;;;;;;;;;6302931;22;20000;-37
2021/07/19 05:53:21;;;;;;;11.50;7.95;;;;;;;;;;6302740;22;20022;-38
2021/07/19 05:55:48;;;;;;;19.48;6.82;;;;;;;;;;6302599;22;20444;-37
2021/07/19 05:58:13;;;;;;;10.57;6.32;;;;;;;;;;6302597;22;19994;-37
2021/07/19 06:00:38;;;;;;;15.18;7.53;;;;;;;;;;6302544;22;19999;-38
2021/07/19 06:03:05;;;;;;;10.35;7.45;;;;;;;;;;6302566;22;20000;-37
2021/07/19 06:05:30;;;;;;;8.38;6.72;;;;;;;;;;6302839;22;20004;-37
2021/07/19 06:07:55;;;;;;;19.13;6.07;;;;;;;;;;6303064;22;20330;-37
2021/07/19 06:10:21;;;;;;;7.57;5.60;;;;;;;;;;6302644;22;20042;-38
2021/07/19 06:12:48;;;;;;;17.55;8.43;;;;;;;;;;6302352;22;19999;-37
2021/07/19 06:15:13;;;;;;;13.30;5.15;;;;;;;;;;6302252;22;20048;-37
2021/07/19 06:17:39;;;;;;;11.32;5.63;;;;;;;;;;6302228;22;20306;-38
2021/07/19 06:20:05;;;;;;;16.25;5.28;;;;;;;;;;6302169;22;20003;-37
2021/07/19 06:22:31;;;;;;;18.42;6.30;;;;;;;;;;6302520;22;20052;-38
2021/07/19 06:24:56;;;;;;;7.75;3.95;;;;;;;;;;6302886;22;20003;-37
2021/07/19 06:27:21;;;;;;;6.88;3.88;;;;;;;;;;6302306;22;20003;-37
2021/07/19 06:29:47;;;;;;;5.35;4.82;;;;;;;;;;6301981;22;20442;-37
2021/07/19 06:32:12;;;;;;;5.88;3.95;;;;;;;;;;6302357;22;20090;-37
2021/07/19 06:34:37;;;;;;;5.70;4.93;;;;;;;;;;6302314;22;20496;-37
2021/07/19 06:37:03;;;;;;;14.45;12.10;;;;;;;;;;6302313;22;20475;-38
2021/07/19 06:39:29;;;;;;;18.35;16.15;;;;;;;;;;6302647;22;19995;-37
2021/07/19 06:41:54;;;;;;;20.63;17.85;;;;;;;;;;6301944;22;20002;-38
2021/07/19 06:44:20;;;;;;;20.23;12.20;;;;;;;;;;6302292;22;20030;-37
2021/07/19 06:46:45;;;;;;;17.10;12.93;;;;;;;;;;6301885;22;20082;-38
2021/07/19 06:49:10;;;;;;;23.23;12.35;;;;;;;;;;6302521;22;20080;-37
2021/07/19 06:51:37;;;;;;;10.55;8.57;;;;;;;;;;6301789;22;20333;-37
2021/07/19 06:54:02;;;;;;;43.47;9.77;;;;;;;;;;6301857;22;20413;-37
2021/07/19 06:56:27;;;;;;;7.50;5.22;;;;;;;;;;6302011;22;20035;-37
2021/07/19 06:58:53;;;;;;;6.20;4.93;;;;;;;;;;6302127;22;20038;-38
2021/07/19 07:01:18;;;;;;;9.77;6.75;;;;;;;;;;6302587;22;20006;-38
2021/07/19 07:03:43;;;;;;;7.40;4.55;;;;;;;;;;6301734;22;20068;-38
2021/07/19 07:06:08;;;;;;;8.98;5.85;;;;;;;;;;6302213;22;20003;-38
2021/07/19 07:08:34;;;;;;;10.23;5.93;;;;;;;;;;6302266;22;20018;-38
2021/07/19 07:11:00;;;;;;;8.27;4.68;;;;;;;;;;6302222;22;20003;-37
2021/07/19 07:13:26;;;;;;;3.65;3.35;;;;;;;;;;6302292;22;19999;-37
2021/07/19 07:15:51;;;;;;;10.38;4.25;;;;;;;;;;6301897;22;20464;-38
2021/07/19 07:18:16;;;;;;;3.63;3.03;;;;;;;;;;6302138;22;20082;-37
2021/07/19 07:20:42;;;;;;;3.90;3.40;;;;;;;;;;6298279;22;19995;-37
2021/07/19 07:23:07;;;;;;;5.00;4.47;;;;;;;;;;6301734;22;19995;-37
2021/07/19 07:25:33;;;;;;;3.55;3.13;;;;;;;;;;6302145;22;19995;-37
2021/07/19 07:27:58;;;;;;;2.17;1.73;;;;;;;;;;6301721;22;20451;-37
2021/07/19 07:30:25;;;;;;;10.90;3.35;;;;;;;;;;6301987;22;20003;-37
2021/07/19 07:32:50;;;;;;;8.15;3.30;;;;;;;;;;6301297;22;20441;-37
2021/07/19 07:35:16;;;;;;;3.90;3.25;;;;;;;;;;6300941;22;19995;-38
2021/07/19 07:37:41;;;;;;;7.10;5.55;;;;;;;;;;6301431;22;19995;-38
2021/07/19 07:40:08;;;;;;;7.22;4.63;;;;;;;;;;6302199;22;19992;-38
2021/07/19 07:42:33;;;;;;;7.65;4.68;;;;;;;;;;6301438;22;20006;-37
2021/07/19 07:44:58;;;;;;;9.00;6.00;;;;;;;;;;6295548;22;20009;-37
2021/07/19 07:47:24;;;;;;;3.90;2.47;;;;;;;;;;6297407;22;20387;-37
2021/07/19 07:49:49;;;;;;;3.35;2.80;;;;;;;;;;6297758;22;20003;-38
2021/07/19 07:52:15;;;;;;;5.18;3.28;;;;;;;;;;6298041;22;19999;-36
2021/07/19 07:54:40;;;;;;;2.97;2.65;;;;;;;;;;6297477;22;20419;-38
2021/07/19 07:57:06;;;;;;;7.85;4.75;;;;;;;;;;6298233;22;20056;-38
2021/07/19 07:59:31;;;;;;;7.18;3.83;;;;;;;;;;6297734;22;20010;-38
2021/07/19 08:01:57;;;;;;;4.38;3.17;;;;;;;;;;6298234;22;20006;-38
2021/07/19 08:04:22;;;;;;;5.55;4.65;;;;;;;;;;6297383;22;20017;-38
2021/07/19 08:06:48;;;;;;;4.05;3.60;;;;;;;;;;6297735;22;20003;-38
2021/07/19 08:09:13;;;;;;;5.57;3.60;;;;;;;;;;6297380;22;20007;-38
2021/07/19 08:11:38;;;;;;;5.30;3.17;;;;;;;;;;6298087;22;20005;-37
2021/07/19 08:14:04;;;;;;;5.63;5.05;;;;;;;;;;6298312;22;20011;-37
2021/07/19 08:16:29;;;;;;;7.95;3.30;;;;;;;;;;6295810;22;20012;-37
2021/07/19 08:18:54;;;;;;;5.63;4.95;;;;;;;;;;6296698;22;19999;-38
2021/07/19 08:21:20;;;;;;;6.32;4.78;;;;;;;;;;6297881;22;19999;-38
2021/07/19 08:23:45;;;;;;;10.63;5.55;;;;;;;;;;6297010;22;20532;-38
2021/07/19 08:26:11;;;;;;;8.05;3.17;;;;;;;;;;6297563;22;20005;-38
2021/07/19 08:28:37;;;;;;;19.02;5.28;;;;;;;;;;6299216;22;19999;-38
2021/07/19 08:31:02;;;;;;;7.18;3.60;;;;;;;;;;6299639;22;20026;-38
2021/07/19 08:33:28;;;;;;;7.10;4.18;;;;;;;;;;6300496;22;20003;-38
2021/07/19 08:35:53;;;;;;;7.10;6.30;;;;;;;;;;6301076;22;20057;-40
2021/07/19 08:38:18;;;;;;;10.23;6.18;;;;;;;;;;6300401;22;20298;-39
2021/07/19 08:40:46;;;;;;;6.78;3.70;;;;;;;;;;6300456;22;20010;-48
2021/07/19 08:43:11;;;;;;;8.10;7.43;;;;;;;;;;6301153;22;19991;-44
2021/07/19 08:45:36;;;;;;;5.93;3.17;;;;;;;;;;6298436;22;20550;-44
2021/07/19 08:48:02;;;;;;;10.43;3.58;;;;;;;;;;6297902;22;20025;-45
2021/07/19 08:50:27;;;;;;;3.78;2.90;;;;;;;;;;6298994;22;20501;-45
2021/07/19 08:52:53;;;;;;;5.07;2.70;;;;;;;;;;6299190;22;20301;-45
2021/07/19 08:55:19;;;;;;;2.17;1.90;;;;;;;;;;6299562;22;20011;-45
2021/07/19 08:57:48;;;;;;;6.90;3.33;;;;;;;;;;6298896;22;20022;-45
2021/07/19 09:00:15;;;;;;;2.90;2.60;;;;;;;;;;6300199;22;19995;-45
2021/07/19 09:02:40;;;;;;;3.55;2.22;;;;;;;;;;6301075;22;19996;-45
2021/07/19 09:05:06;;;;;;;6.30;2.80;;;;;;;;;;6301232;22;20010;-45
2021/07/19 09:07:31;;;;;;;5.55;2.13;;;;;;;;;;6301080;22;19999;-45
2021/07/19 09:09:57;;;;;;;6.40;2.80;;;;;;;;;;6300681;22;20006;-45
2021/07/19 09:12:48;;;;;;;5.32;2.33;;;;;;;;;;6300723;22;19999;-45
2021/07/19 09:15:14;;;;;;;7.38;2.47;;;;;;;;;;6295667;22;20015;-45
2021/07/19 09:17:40;;;;;;;4.93;2.10;;;;;;;;;;6301748;22;19992;-44
2021/07/19 09:20:07;;;;;;;7.40;3.38;;;;;;;;;;6303420;22;20003;-45
2021/07/19 09:22:33;;;;;;;2.35;1.58;;;;;;;;;;6302982;22;20006;-45
2021/07/19 09:25:09;;;;;;;3.95;3.30;;;;;;;;;;6303180;22;20444;-45
2021/07/19 09:27:34;;;;;;;2.78;1.80;;;;;;;;;;6303149;22;20022;-45
2021/07/19 09:30:09;;;;;;;4.38;2.83;;;;;;;;;;6302764;22;19995;-45
2021/07/19 09:32:50;;;;;;;2.70;2.28;;;;;;;;;;6302966;22;20055;-45
2021/07/19 09:35:15;;;;;;;;;;;;;;;;;;6303290;22;20082;-45
2021/07/19 09:37:40;;;;;;;3.58;1.40;;;;;;;;;;6303077;22;19967;-46
2021/07/19 09:40:07;;;;;;;39.92;3.30;;;;;;;;;;6302810;22;20417;-46
2021/07/19 09:42:40;;;;;;;6.78;2.28;;;;;;;;;;6302378;22;19996;-47
2021/07/19 09:45:05;;;;;;;14.90;4.03;;;;;;;;;;6302368;22;20006;-43
2021/07/19 09:47:36;;;;;;;12.35;2.45;;;;;;;;;;6302916;22;19991;-44
2021/07/19 09:50:01;;;;;;;;;;;;;;;;;;6303085;22;19999;-43
2021/07/19 09:52:32;;;;;;;3.28;2.97;;;;;;;;;;6302579;22;19942;-45
2021/07/19 09:54:58;;;;;;;3.05;1.88;;;;;;;;;;6302220;22;20475;-40
2021/07/19 09:57:23;;;;;;;2.35;1.85;;;;;;;;;;6302633;22;20007;-43
2021/07/19 09:59:50;;;;;;;9.32;2.05;;;;;;;;;;6302647;22;20325;-43
2021/07/19 10:02:32;;;;;;;2.95;1.77;;;;;;;;;;6302288;22;20108;-44
2021/07/19 10:04:58;;;;;;;2.20;1.88;;;;;;;;;;6302839;22;20007;-38
2021/07/19 10:07:26;;;;;;;22.05;2.90;;;;;;;;;;6302583;22;20472;-39
2021/07/19 10:09:55;;;;;;;3.40;1.90;;;;;;;;;;6302487;22;20025;-38
2021/07/19 10:12:21;;;;;;;2.17;1.38;;;;;;;;;;6301968;22;19995;-38
2021/07/19 10:14:47;;;;;;;1.83;1.40;;;;;;;;;;6301681;22;20026;-37
2021/07/19 10:17:12;;;;;;;4.13;1.85;;;;;;;;;;6302942;22;20013;-38
2021/07/19 10:19:40;;;;;;;4.88;1.75;;;;;;;;;;6302651;22;20260;-38
2021/07/19 10:22:05;;;;;;;2.70;1.30;;;;;;;;;;6301948;22;19999;-37
2021/07/19 10:24:31;;;;;;;5.30;2.00;;;;;;;;;;6302463;22;19998;-38
2021/07/19 10:26:57;;;;;;;1.65;1.20;;;;;;;;;;6301967;22;20103;-37
2021/07/19 10:29:23;;;;;;;3.25;2.38;;;;;;;;;;6301818;22;20003;-38
2021/07/19 10:31:48;;;;;;;2.63;2.10;;;;;;;;;;6302266;22;19999;-38
2021/07/19 10:34:17;;;;;;;3.47;1.30;;;;;;;;;;6301827;22;20003;-38
2021/07/19 10:36:45;;;;;;;3.22;2.22;;;;;;;;;;6301946;22;20030;-41
2021/07/19 10:39:11;;;;;;;2.25;1.45;;;;;;;;;;6302316;22;20053;-38
2021/07/19 10:41:37;;;;;;;3.03;1.80;;;;;;;;;;6301497;22;19999;-38
2021/07/19 10:44:05;;;;;;;2.55;2.03;;;;;;;;;;6302306;22;19999;-38
2021/07/19 10:46:30;;;;;;;3.65;1.95;;;;;;;;;;6301773;22;19999;-38
2021/07/19 10:49:03;;;;;;;3.08;1.88;;;;;;;;;;6302246;22;19996;-36
2021/07/19 10:51:36;;;;;;;1.30;1.00;;;;;;;;;;6301875;22;20002;-38
2021/07/19 10:54:10;;;;;;;3.38;1.92;;;;;;;;;;6302308;22;19995;-36
2021/07/19 10:56:35;;;;;;;6.72;2.70;;;;;;;;;;6301732;22;20075;-37
2021/07/19 10:59:00;;;;;;;5.18;2.10;;;;;;;;;;6302305;22;20447;-37
2021/07/19 11:01:27;;;;;;;6.32;1.83;;;;;;;;;;6301728;22;19998;-37
2021/07/19 11:03:57;;;;;;;2.40;1.60;;;;;;;;;;6302177;22;20022;-37
2021/07/19 11:06:33;;;;;;;2.30;1.08;;;;;;;;;;6302716;22;20053;-38
2021/07/19 11:08:58;;;;;;;3.58;1.90;;;;;;;;;;6302181;22;20094;-37
2021/07/19 11:11:26;;;;;;;1.42;1.13;;;;;;;;;;6301830;22;20053;-37
2021/07/19 11:13:56;;;;;;;5.43;1.50;;;;;;;;;;6301982;22;19999;-37
2021/07/19 11:16:21;;;;;;;3.33;1.75;;;;;;;;;;6301667;22;20015;-38
2021/07/19 11:18:57;;;;;;;2.10;1.50;;;;;;;;;;6302121;22;20045;-38
2021/07/19 11:21:23;;;;;;;2.75;1.35;;;;;;;;;;6302317;22;19999;-37
2021/07/19 11:23:49;;;;;;;5.53;2.55;;;;;;;;;;6301619;22;19999;-37
2021/07/19 11:26:25;;;;;;;2.38;1.83;;;;;;;;;;6302377;22;20003;-37
2021/07/19 11:28:55;;;;;;;1.73;1.17;;;;;;;;;;6302317;22;20007;-38
2021/07/19 11:31:23;;;;;;;1.98;1.52;;;;;;;;;;6302345;22;20089;-37
2021/07/19 11:33:56;;;;;;;2.53;1.67;;;;;;;;;;6301476;22;20314;-38
2021/07/19 11:36:22;;;;;;;2.33;1.85;;;;;;;;;;6302363;22;19996;-38
2021/07/19 11:38:48;;;;;;;1.55;1.25;;;;;;;;;;6301898;22;20637;-38
2021/07/19 11:41:18;;;;;;;2.92;1.48;;;;;;;;;;6301056;22;20072;-37
2021/07/19 11:43:44;;;;;;;5.25;1.42;;;;;;;;;;6301981;22;20204;-37
2021/07/19 11:46:10;;;;;;;1.38;1.20;;;;;;;;;;6302086;22;20395;-37
2021/07/19 11:48:36;;;;;;;2.35;1.50;;;;;;;;;;6301130;22;20098;-38
2021/07/19 11:51:01;;;;;;;2.70;1.10;;;;;;;;;;6301856;22;20315;-38
2021/07/19 11:53:26;;;;;;;3.00;1.70;;;;;;;;;;6301627;22;20464;-38
2021/07/19 11:55:52;;;;;;;1.75;1.50;;;;;;;;;;6301642;22;20070;-37
2021/07/19 11:58:17;;;;;;;5.40;2.22;;;;;;;;;;6301580;22;20002;-37
2021/07/19 12:00:44;;;;;;;1.98;1.40;;;;;;;;;;6301676;22;19991;-38
2021/07/19 12:03:14;;;;;;;6.03;2.00;;;;;;;;;;6300849;22;19999;-37
2021/07/19 12:05:51;;;;;;;5.95;1.40;;;;;;;;;;6301595;22;20075;-37
2021/07/19 12:08:23;;;;;;;7.68;2.25;;;;;;;;;;6301573;22;20514;-37
2021/07/19 12:10:48;;;;;;;1.88;1.23;;;;;;;;;;6301808;22;20007;-37
2021/07/19 12:13:14;;;;;;;1.80;1.13;;;;;;;;;;6301142;22;20026;-37
2021/07/19 12:15:49;;;;;;;2.72;1.58;;;;;;;;;;6300817;22;20015;-38
2021/07/19 12:18:24;;;;;;;1.33;0.93;;;;;;;;;;6301127;22;20074;-37
2021/07/19 12:20:53;;;;;;;2.63;1.50;;;;;;;;;;6301400;22;19991;-38
2021/07/19 12:23:18;;;;;;;2.40;1.95;;;;;;;;;;6301578;22;20080;-37
2021/07/19 12:25:44;;;;;;;1.67;1.08;;;;;;;;;;6301380;22;20621;-37
2021/07/19 12:28:09;;;;;;;4.82;1.58;;;;;;;;;;6300876;22;20003;-38
2021/07/19 12:30:34;;;;;;;3.42;1.90;;;;;;;;;;6301114;22;20011;-37
2021/07/19 12:33:00;;;;;;;2.28;1.33;;;;;;;;;;6301173;22;20031;-37
2021/07/19 12:35:29;;;;;;;2.92;1.40;;;;;;;;;;6301177;22;19999;-38
2021/07/19 12:37:55;;;;;;;3.25;1.40;;;;;;;;;;6301121;22;20074;-37
2021/07/19 12:40:22;;;;;;;1.23;1.05;;;;;;;;;;6301714;22;19991;-37
2021/07/19 12:42:51;;;;;;;3.88;1.45;;;;;;;;;;6301205;22;20003;-38
2021/07/19 12:45:16;;;;;;;6.13;1.40;;;;;;;;;;6301094;22;20035;-38
2021/07/19 12:47:43;;;;;;;4.05;1.30;;;;;;;;;;6300744;22;20002;-38
2021/07/19 12:50:08;;;;;;;9.32;1.77;;;;;;;;;;6300990;22;19999;-37
2021/07/19 12:52:34;;;;;;;1.15;0.90;;;;;;;;;;6300579;22;20074;-38
2021/07/19 12:55:06;;;;;;;8.48;2.03;;;;;;;;;;6301037;22;19995;-37
2021/07/19 12:57:33;;;;;;;1.73;1.17;;;;;;;;;;6300569;22;20499;-37
2021/07/19 13:00:00;;;;;;;5.28;2.15;;;;;;;;;;6300726;22;20045;-37
2021/07/19 13:02:26;;;;;;;5.93;2.22;;;;;;;;;;6300965;22;19995;-37
2021/07/19 13:04:52;;;;;;;2.20;1.90;;;;;;;;;;6300864;22;19999;-37
2021/07/19 13:07:27;;;;;;;2.10;1.40;;;;;;;;;;6300906;22;20427;-37
2021/07/19 13:10:00;;;;;;;8.38;1.95;;;;;;;;;;6300835;22;20070;-39
2021/07/19 13:12:26;;;;;;;3.40;1.70;;;;;;;;;;6300718;22;20074;-37
2021/07/19 13:14:56;;;;;;;13.50;1.77;;;;;;;;;;6300269;22;20100;-38
2021/07/19 13:17:21;;;;;;;;;;;;;;;;;;6301476;22;20003;-37
2021/07/19 13:19:51;;;;;;;2.03;1.23;;;;;;;;;;6300450;22;19903;-37
2021/07/19 13:22:17;;;;;;;4.25;2.25;;;;;;;;;;6301123;22;19999;-37
2021/07/19 13:24:44;;;;;;;4.45;2.95;;;;;;;;;;6300635;22;20550;-38
2021/07/19 13:27:10;;;;;;;4.82;2.78;;;;;;;;;;6300831;22;20045;-38
2021/07/19 13:29:36;;;;;;;3.72;2.28;;;;;;;;;;6300507;22;20038;-37
2021/07/19 13:32:08;;;;;;;2.20;1.42;;;;;;;;;;6300817;22;19995;-38
2021/07/19 13:34:33;;;;;;;2.63;1.48;;;;;;;;;;6301016;22;20007;-37
2021/07/19 13:36:58;;;;;;;4.18;3.00;;;;;;;;;;6300646;22;20328;-38
2021/07/19 13:39:25;;;;;;;1.63;1.27;;;;;;;;;;6301247;22;20121;-38
2021/07/19 13:41:59;;;;;;;2.08;1.75;;;;;;;;;;6300901;22;19996;-39
2021/07/19 13:44:24;;;;;;;2.85;2.35;;;;;;;;;;6300753;22;20010;-38
2021/07/19 13:46:50;;;;;;;2.45;1.33;;;;;;;;;;6301032;22;19999;-38
2021/07/19 13:49:16;;;;;;;3.88;1.88;;;;;;;;;;6300690;22;20006;-38
2021/07/19 13:51:41;;;;;;;3.80;1.30;;;;;;;;;;6300656;22;19999;-38
2021/07/19 13:54:06;;;;;;;8.02;2.33;;;;;;;;;;6300503;22;20476;-38
2021/07/19 13:56:34;;;;;;;7.57;2.17;;;;;;;;;;6300892;22;20120;-38
2021/07/19 13:58:59;;;;;;;7.75;2.67;;;;;;;;;;6300989;22;19995;-38
2021/07/19 14:01:24;;;;;;;3.00;1.50;;;;;;;;;;6300753;22;20025;-38
2021/07/19 14:03:50;;;;;;;2.25;1.63;;;;;;;;;;6301080;22;20025;-38
2021/07/19 14:06:15;;;;;;;4.72;1.98;;;;;;;;;;6303048;22;20003;-38
2021/07/19 14:08:41;;;;;;;13.38;2.15;;;;;;;;;;6302669;22;20027;-41
2021/07/19 14:11:06;;;;;;;3.55;2.50;;;;;;;;;;6302687;22;20432;-39
2021/07/19 14:13:31;;;;;;;6.32;2.45;;;;;;;;;;6302521;22;20003;-38
2021/07/19 14:15:57;;;;;;;5.47;3.50;;;;;;;;;;6302421;22;20030;-39
2021/07/19 14:18:23;;;;;;;4.28;2.70;;;;;;;;;;6302776;22;19996;-39
2021/07/19 14:20:49;;;;;;;3.80;2.17;;;;;;;;;;6302070;22;20014;-38
2021/07/19 14:23:14;;;;;;;9.05;1.95;;;;;;;;;;6302243;22;19991;-38
2021/07/19 14:25:40;;;;;;;6.15;2.72;;;;;;;;;;6302282;22;20004;-38
2021/07/19 14:28:05;;;;;;;5.13;3.05;;;;;;;;;;6302798;22;20007;-38
2021/07/19 14:30:31;;;;;;;3.78;2.05;;;;;;;;;;6302270;22;20440;-38
2021/07/19 14:32:56;;;;;;;6.80;2.20;;;;;;;;;;6302171;22;20010;-38
2021/07/19 14:35:22;;;;;;;3.08;1.98;;;;;;;;;;6302276;22;20332;-38
2021/07/19 14:37:47;;;;;;;2.45;1.92;;;;;;;;;;6301939;22;20078;-38
2021/07/19 14:40:13;;;;;;;3.65;2.42;;;;;;;;;;6301742;22;20098;-38